sensor_id;sensor_type;location;lat;lon;timestamp;temperature;humidity
2931;DHT22;1475;51.454;7.150;2022-09-09T00:01:14;14.10;99.90
2931;DHT22;1475;51.454;7.150;2022-09-09T00:03:49;14.20;99.90
2931;DHT22;1475;51.454;7.150;2022-09-09T00:06:24;14.20;99.90
2931;DHT22;1475;51.454;7.150;2022-09-09T00:09:00;14.20;99.90
2931;DHT22;1475;51.454;7.150;2022-09-09T00:11:33;14.20;99.90
2931;DHT22;1475;51.454;7.150;2022-09-09T00:14:03;14.20;99.90
2931;DHT22;1475;51.454;7.150;2022-09-09T00:16:37;14.30;99.90
2931;DHT22;1475;51.454;7.150;2022-09-09T00:19:15;14.20;99.90
2931;DHT22;1475;51.454;7.150;2022-09-09T00:21:51;14.20;99.90
2931;DHT22;1475;51.454;7.150;2022-09-09T00:24:27;14.20;99.90
2931;DHT22;1475;51.454;7.150;2022-09-09T00:27:01;14.20;99.90
2931;DHT22;1475;51.454;7.150;2022-09-09T00:29:35;14.20;99.90
2931;DHT22;1475;51.454;7.150;2022-09-09T00:32:12;14.20;99.90
2931;DHT22;1475;51.454;7.150;2022-09-09T00:34:41;14.10;99.90
2931;DHT22;1475;51.454;7.150;2022-09-09T00:37:10;14.10;99.90
2931;DHT22;1475;51.454;7.150;2022-09-09T00:39:38;14.10;99.90
2931;DHT22;1475;51.454;7.150;2022-09-09T00:42:14;14.10;99.90
2931;DHT22;1475;51.454;7.150;2022-09-09T00:44:56;14.00;99.90
2931;DHT22;1475;51.454;7.150;2022-09-09T00:47:39;14.00;99.90
2931;DHT22;1475;51.454;7.150;2022-09-09T00:50:22;14.00;99.90
2931;DHT22;1475;51.454;7.150;2022-09-09T00:52:59;13.90;99.90
2931;DHT22;1475;51.454;7.150;2022-09-09T00:55:36;13.90;99.90
2931;DHT22;1475;51.454;7.150;2022-09-09T00:58:07;13.90;99.90
2931;DHT22;1475;51.454;7.150;2022-09-09T01:00:41;13.90;99.90
2931;DHT22;1475;51.454;7.150;2022-09-09T01:03:24;13.90;99.90
2931;DHT22;1475;51.454;7.150;2022-09-09T01:06:02;14.00;99.90
2931;DHT22;1475;51.454;7.150;2022-09-09T01:08:49;14.00;99.90
2931;DHT22;1475;51.454;7.150;2022-09-09T01:11:21;14.00;99.90
2931;DHT22;1475;51.454;7.150;2022-09-09T01:13:54;14.10;99.90
2931;DHT22;1475;51.454;7.150;2022-09-09T01:16:24;14.10;99.90
2931;DHT22;1475;51.454;7.150;2022-09-09T01:18:54;14.10;99.90
2931;DHT22;1475;51.454;7.150;2022-09-09T01:21:30;14.10;99.90
2931;DHT22;1475;51.454;7.150;2022-09-09T01:24:20;14.10;99.90
2931;DHT22;1475;51.454;7.150;2022-09-09T01:26:51;14.00;99.90
2931;DHT22;1475;51.454;7.150;2022-09-09T01:29:21;14.00;99.90
2931;DHT22;1475;51.454;7.150;2022-09-09T01:31:54;14.00;99.90
2931;DHT22;1475;51.454;7.150;2022-09-09T01:34:22;13.90;99.90
2931;DHT22;1475;51.454;7.150;2022-09-09T01:36:53;14.00;99.90
2931;DHT22;1475;51.454;7.150;2022-09-09T01:39:23;14.00;99.90
2931;DHT22;1475;51.454;7.150;2022-09-09T01:41:52;14.10;99.90
2931;DHT22;1475;51.454;7.150;2022-09-09T01:44:19;14.10;99.90
2931;DHT22;1475;51.454;7.150;2022-09-09T01:46:46;14.20;99.90
2931;DHT22;1475;51.454;7.150;2022-09-09T01:49:13;14.30;99.90
2931;DHT22;1475;51.454;7.150;2022-09-09T01:51:41;14.30;99.90
2931;DHT22;1475;51.454;7.150;2022-09-09T01:54:09;14.40;99.90
2931;DHT22;1475;51.454;7.150;2022-09-09T01:56:43;14.40;99.90
2931;DHT22;1475;51.454;7.150;2022-09-09T01:59:27;14.40;99.90
2931;DHT22;1475;51.454;7.150;2022-09-09T02:02:08;14.40;99.90
2931;DHT22;1475;51.454;7.150;2022-09-09T02:04:38;14.30;99.90
2931;DHT22;1475;51.454;7.150;2022-09-09T02:07:12;14.20;99.90
2931;DHT22;1475;51.454;7.150;2022-09-09T02:09:41;14.20;99.90
2931;DHT22;1475;51.454;7.150;2022-09-09T02:12:13;14.10;99.90
2931;DHT22;1475;51.454;7.150;2022-09-09T02:14:47;14.10;99.90
2931;DHT22;1475;51.454;7.150;2022-09-09T02:17:19;14.10;99.90
2931;DHT22;1475;51.454;7.150;2022-09-09T02:19:52;14.00;99.90
2931;DHT22;1475;51.454;7.150;2022-09-09T02:22:23;14.00;99.90
2931;DHT22;1475;51.454;7.150;2022-09-09T02:24:52;14.00;99.90
2931;DHT22;1475;51.454;7.150;2022-09-09T02:27:22;14.00;99.90
2931;DHT22;1475;51.454;7.150;2022-09-09T02:29:51;14.00;99.90
2931;DHT22;1475;51.454;7.150;2022-09-09T02:32:21;14.00;99.90
2931;DHT22;1475;51.454;7.150;2022-09-09T02:34:51;14.00;99.90
2931;DHT22;1475;51.454;7.150;2022-09-09T02:37:23;14.00;99.90
2931;DHT22;1475;51.454;7.150;2022-09-09T02:39:50;14.10;99.90
2931;DHT22;1475;51.454;7.150;2022-09-09T02:42:17;14.20;99.90
2931;DHT22;1475;51.454;7.150;2022-09-09T02:44:44;14.20;99.90
2931;DHT22;1475;51.454;7.150;2022-09-09T02:47:26;14.30;99.90
2931;DHT22;1475;51.454;7.150;2022-09-09T02:50:02;14.40;99.90
2931;DHT22;1475;51.454;7.150;2022-09-09T02:52:38;14.40;99.90
2931;DHT22;1475;51.454;7.150;2022-09-09T02:55:16;14.40;99.90
2931;DHT22;1475;51.454;7.150;2022-09-09T02:57:46;14.40;99.90
2931;DHT22;1475;51.454;7.150;2022-09-09T03:00:13;14.50;99.90
2931;DHT22;1475;51.454;7.150;2022-09-09T03:02:42;14.50;99.90
2931;DHT22;1475;51.454;7.150;2022-09-09T03:05:10;14.50;99.90
2931;DHT22;1475;51.454;7.150;2022-09-09T03:07:38;14.50;99.90
2931;DHT22;1475;51.454;7.150;2022-09-09T03:10:06;14.50;99.90
2931;DHT22;1475;51.454;7.150;2022-09-09T03:12:33;14.50;99.90
2931;DHT22;1475;51.454;7.150;2022-09-09T03:15:00;14.50;99.90
2931;DHT22;1475;51.454;7.150;2022-09-09T03:17:27;14.50;99.90
2931;DHT22;1475;51.454;7.150;2022-09-09T03:19:55;14.60;99.90
2931;DHT22;1475;51.454;7.150;2022-09-09T03:22:23;14.60;99.90
2931;DHT22;1475;51.454;7.150;2022-09-09T03:24:50;14.50;99.90
2931;DHT22;1475;51.454;7.150;2022-09-09T03:27:17;14.50;99.90
2931;DHT22;1475;51.454;7.150;2022-09-09T03:29:44;14.50;99.90
2931;DHT22;1475;51.454;7.150;2022-09-09T03:32:12;14.40;99.90
2931;DHT22;1475;51.454;7.150;2022-09-09T03:34:43;14.40;99.90
2931;DHT22;1475;51.454;7.150;2022-09-09T03:37:11;14.40;99.90
2931;DHT22;1475;51.454;7.150;2022-09-09T03:39:38;14.40;99.90
2931;DHT22;1475;51.454;7.150;2022-09-09T03:42:05;14.30;99.90
2931;DHT22;1475;51.454;7.150;2022-09-09T03:44:32;14.30;99.90
2931;DHT22;1475;51.454;7.150;2022-09-09T03:46:58;14.30;99.90
2931;DHT22;1475;51.454;7.150;2022-09-09T03:49:26;14.20;99.90
2931;DHT22;1475;51.454;7.150;2022-09-09T03:51:54;14.20;99.90
2931;DHT22;1475;51.454;7.150;2022-09-09T03:54:23;14.30;99.90
2931;DHT22;1475;51.454;7.150;2022-09-09T03:56:50;14.30;99.90
2931;DHT22;1475;51.454;7.150;2022-09-09T03:59:16;14.30;99.90
2931;DHT22;1475;51.454;7.150;2022-09-09T04:01:43;14.30;99.90
2931;DHT22;1475;51.454;7.150;2022-09-09T04:04:10;14.30;99.90
2931;DHT22;1475;51.454;7.150;2022-09-09T04:06:38;14.40;99.90
2931;DHT22;1475;51.454;7.150;2022-09-09T04:09:04;14.40;99.90
2931;DHT22;1475;51.454;7.150;2022-09-09T04:11:32;14.40;99.90
2931;DHT22;1475;51.454;7.150;2022-09-09T04:13:59;14.40;99.90
2931;DHT22;1475;51.454;7.150;2022-09-09T04:16:26;14.40;99.90
2931;DHT22;1475;51.454;7.150;2022-09-09T04:18:53;14.40;99.90
2931;DHT22;1475;51.454;7.150;2022-09-09T04:21:21;14.40;99.90
2931;DHT22;1475;51.454;7.150;2022-09-09T04:23:48;14.40;99.90
2931;DHT22;1475;51.454;7.150;2022-09-09T04:26:15;14.30;99.90
2931;DHT22;1475;51.454;7.150;2022-09-09T04:28:44;14.30;99.90
2931;DHT22;1475;51.454;7.150;2022-09-09T04:31:14;14.30;99.90
2931;DHT22;1475;51.454;7.150;2022-09-09T04:33:41;14.20;99.90
2931;DHT22;1475;51.454;7.150;2022-09-09T04:36:08;14.10;99.90
2931;DHT22;1475;51.454;7.150;2022-09-09T04:38:35;14.10;99.90
2931;DHT22;1475;51.454;7.150;2022-09-09T04:41:02;14.10;99.90
2931;DHT22;1475;51.454;7.150;2022-09-09T04:43:29;14.10;99.90
2931;DHT22;1475;51.454;7.150;2022-09-09T04:45:58;14.10;99.90
2931;DHT22;1475;51.454;7.150;2022-09-09T04:48:25;14.00;99.90
2931;DHT22;1475;51.454;7.150;2022-09-09T04:50:56;14.10;99.90
2931;DHT22;1475;51.454;7.150;2022-09-09T04:53:24;14.10;99.90
2931;DHT22;1475;51.454;7.150;2022-09-09T04:55:51;14.20;99.90
2931;DHT22;1475;51.454;7.150;2022-09-09T04:58:18;14.20;99.90
2931;DHT22;1475;51.454;7.150;2022-09-09T05:00:47;14.30;99.90
2931;DHT22;1475;51.454;7.150;2022-09-09T05:03:15;14.30;99.90
2931;DHT22;1475;51.454;7.150;2022-09-09T05:05:42;14.30;99.90
2931;DHT22;1475;51.454;7.150;2022-09-09T05:08:09;14.30;99.90
2931;DHT22;1475;51.454;7.150;2022-09-09T05:10:37;14.30;99.90
2931;DHT22;1475;51.454;7.150;2022-09-09T05:13:05;14.40;99.90
2931;DHT22;1475;51.454;7.150;2022-09-09T05:15:32;14.40;99.90
2931;DHT22;1475;51.454;7.150;2022-09-09T05:17:59;14.50;99.90
2931;DHT22;1475;51.454;7.150;2022-09-09T05:20:28;14.50;99.90
2931;DHT22;1475;51.454;7.150;2022-09-09T05:22:55;14.50;99.90
2931;DHT22;1475;51.454;7.150;2022-09-09T05:25:23;14.50;99.90
2931;DHT22;1475;51.454;7.150;2022-09-09T05:27:50;14.60;99.90
2931;DHT22;1475;51.454;7.150;2022-09-09T05:30:17;14.60;99.90
2931;DHT22;1475;51.454;7.150;2022-09-09T05:32:44;14.70;99.90
2931;DHT22;1475;51.454;7.150;2022-09-09T05:35:14;14.70;99.90
2931;DHT22;1475;51.454;7.150;2022-09-09T05:37:42;14.70;99.90
2931;DHT22;1475;51.454;7.150;2022-09-09T05:40:09;14.70;99.90
2931;DHT22;1475;51.454;7.150;2022-09-09T05:42:36;14.80;99.90
2931;DHT22;1475;51.454;7.150;2022-09-09T05:45:05;14.80;99.90
2931;DHT22;1475;51.454;7.150;2022-09-09T05:47:33;14.90;99.90
2931;DHT22;1475;51.454;7.150;2022-09-09T05:49:59;14.90;99.90
2931;DHT22;1475;51.454;7.150;2022-09-09T05:52:26;15.00;99.90
2931;DHT22;1475;51.454;7.150;2022-09-09T05:54:55;15.00;99.90
2931;DHT22;1475;51.454;7.150;2022-09-09T05:57:22;15.10;99.90
2931;DHT22;1475;51.454;7.150;2022-09-09T05:59:49;15.10;99.90
2931;DHT22;1475;51.454;7.150;2022-09-09T06:02:16;15.20;99.90
2931;DHT22;1475;51.454;7.150;2022-09-09T06:04:43;15.20;99.90
2931;DHT22;1475;51.454;7.150;2022-09-09T06:07:09;15.20;99.90
2931;DHT22;1475;51.454;7.150;2022-09-09T06:09:36;15.30;99.90
2931;DHT22;1475;51.454;7.150;2022-09-09T06:12:05;15.30;99.90
2931;DHT22;1475;51.454;7.150;2022-09-09T06:14:32;15.40;99.90
2931;DHT22;1475;51.454;7.150;2022-09-09T06:16:59;15.50;99.90
2931;DHT22;1475;51.454;7.150;2022-09-09T06:19:26;15.50;99.90
2931;DHT22;1475;51.454;7.150;2022-09-09T06:21:53;15.60;99.90
2931;DHT22;1475;51.454;7.150;2022-09-09T06:24:20;15.60;99.90
2931;DHT22;1475;51.454;7.150;2022-09-09T06:26:47;15.70;99.90
2931;DHT22;1475;51.454;7.150;2022-09-09T06:29:15;15.80;99.90
2931;DHT22;1475;51.454;7.150;2022-09-09T06:31:42;15.90;99.90
2931;DHT22;1475;51.454;7.150;2022-09-09T06:34:09;16.00;99.90
2931;DHT22;1475;51.454;7.150;2022-09-09T06:36:38;16.10;99.90
2931;DHT22;1475;51.454;7.150;2022-09-09T06:39:05;16.20;99.90
2931;DHT22;1475;51.454;7.150;2022-09-09T06:41:33;16.20;99.90
2931;DHT22;1475;51.454;7.150;2022-09-09T06:44:00;16.30;99.90
2931;DHT22;1475;51.454;7.150;2022-09-09T06:46:29;16.40;99.90
2931;DHT22;1475;51.454;7.150;2022-09-09T06:48:58;16.40;99.90
2931;DHT22;1475;51.454;7.150;2022-09-09T06:51:27;16.50;99.90
2931;DHT22;1475;51.454;7.150;2022-09-09T06:53:55;16.60;99.90
2931;DHT22;1475;51.454;7.150;2022-09-09T06:56:25;16.70;99.90
2931;DHT22;1475;51.454;7.150;2022-09-09T06:58:54;16.80;99.90
2931;DHT22;1475;51.454;7.150;2022-09-09T07:01:22;16.80;99.90
2931;DHT22;1475;51.454;7.150;2022-09-09T07:03:52;16.90;99.90
2931;DHT22;1475;51.454;7.150;2022-09-09T07:06:21;16.90;99.90
2931;DHT22;1475;51.454;7.150;2022-09-09T07:08:49;17.00;99.90
2931;DHT22;1475;51.454;7.150;2022-09-09T07:11:18;17.10;99.90
2931;DHT22;1475;51.454;7.150;2022-09-09T07:13:46;17.10;99.90
2931;DHT22;1475;51.454;7.150;2022-09-09T07:16:14;17.20;99.90
2931;DHT22;1475;51.454;7.150;2022-09-09T07:18:42;17.30;99.90
2931;DHT22;1475;51.454;7.150;2022-09-09T07:21:12;17.40;99.90
2931;DHT22;1475;51.454;7.150;2022-09-09T07:23:39;17.60;99.90
2931;DHT22;1475;51.454;7.150;2022-09-09T07:26:11;17.80;99.90
2931;DHT22;1475;51.454;7.150;2022-09-09T07:28:39;17.90;99.90
2931;DHT22;1475;51.454;7.150;2022-09-09T07:31:08;18.10;99.90
2931;DHT22;1475;51.454;7.150;2022-09-09T07:33:39;18.10;99.90
2931;DHT22;1475;51.454;7.150;2022-09-09T07:36:08;18.10;99.90
2931;DHT22;1475;51.454;7.150;2022-09-09T07:38:40;18.00;99.90
2931;DHT22;1475;51.454;7.150;2022-09-09T07:41:10;17.90;99.90
2931;DHT22;1475;51.454;7.150;2022-09-09T07:43:38;17.70;99.90
2931;DHT22;1475;51.454;7.150;2022-09-09T07:46:06;17.60;99.90
2931;DHT22;1475;51.454;7.150;2022-09-09T07:48:33;17.50;99.90
2931;DHT22;1475;51.454;7.150;2022-09-09T07:51:08;17.40;99.90
2931;DHT22;1475;51.454;7.150;2022-09-09T07:53:35;17.30;99.90
2931;DHT22;1475;51.454;7.150;2022-09-09T07:56:06;17.30;99.90
2931;DHT22;1475;51.454;7.150;2022-09-09T07:58:35;17.30;99.90
2931;DHT22;1475;51.454;7.150;2022-09-09T08:01:07;17.40;99.90
2931;DHT22;1475;51.454;7.150;2022-09-09T08:03:34;17.40;99.90
2931;DHT22;1475;51.454;7.150;2022-09-09T08:06:02;17.40;99.90
2931;DHT22;1475;51.454;7.150;2022-09-09T08:08:29;17.50;99.90
2931;DHT22;1475;51.454;7.150;2022-09-09T08:11:02;17.50;99.90
2931;DHT22;1475;51.454;7.150;2022-09-09T08:13:31;17.50;99.90
2931;DHT22;1475;51.454;7.150;2022-09-09T08:16:07;17.50;99.90
2931;DHT22;1475;51.454;7.150;2022-09-09T08:18:34;17.70;99.90
2931;DHT22;1475;51.454;7.150;2022-09-09T08:21:08;17.80;99.90
2931;DHT22;1475;51.454;7.150;2022-09-09T08:23:37;18.00;99.90
2931;DHT22;1475;51.454;7.150;2022-09-09T08:26:05;18.20;99.90
2931;DHT22;1475;51.454;7.150;2022-09-09T08:28:34;18.40;99.90
2931;DHT22;1475;51.454;7.150;2022-09-09T08:31:12;18.50;99.90
2931;DHT22;1475;51.454;7.150;2022-09-09T08:33:39;18.50;99.90
2931;DHT22;1475;51.454;7.150;2022-09-09T08:36:08;18.40;99.90
2931;DHT22;1475;51.454;7.150;2022-09-09T08:38:35;18.30;99.90
2931;DHT22;1475;51.454;7.150;2022-09-09T08:41:32;18.30;99.90
2931;DHT22;1475;51.454;7.150;2022-09-09T08:44:07;18.50;99.90
2931;DHT22;1475;51.454;7.150;2022-09-09T08:46:44;18.80;99.90
2931;DHT22;1475;51.454;7.150;2022-09-09T08:49:35;19.10;99.90
2931;DHT22;1475;51.454;7.150;2022-09-09T08:52:11;19.40;99.90
2931;DHT22;1475;51.454;7.150;2022-09-09T08:54:39;19.90;99.90
2931;DHT22;1475;51.454;7.150;2022-09-09T08:57:11;20.20;99.90
2931;DHT22;1475;51.454;7.150;2022-09-09T08:59:41;20.40;99.90
2931;DHT22;1475;51.454;7.150;2022-09-09T09:02:15;20.40;99.90
2931;DHT22;1475;51.454;7.150;2022-09-09T09:04:51;20.10;99.90
2931;DHT22;1475;51.454;7.150;2022-09-09T09:07:31;20.30;99.90
2931;DHT22;1475;51.454;7.150;2022-09-09T09:10:03;20.40;99.90
2931;DHT22;1475;51.454;7.150;2022-09-09T09:12:38;20.40;99.90
2931;DHT22;1475;51.454;7.150;2022-09-09T09:15:14;20.30;99.90
2931;DHT22;1475;51.454;7.150;2022-09-09T09:17:43;20.20;99.90
2931;DHT22;1475;51.454;7.150;2022-09-09T09:20:12;20.10;99.90
2931;DHT22;1475;51.454;7.150;2022-09-09T09:22:46;20.00;99.90
2931;DHT22;1475;51.454;7.150;2022-09-09T09:25:17;19.90;99.90
2931;DHT22;1475;51.454;7.150;2022-09-09T09:27:52;19.80;99.90
2931;DHT22;1475;51.454;7.150;2022-09-09T09:30:25;19.80;99.90
2931;DHT22;1475;51.454;7.150;2022-09-09T09:32:56;19.80;99.90
2931;DHT22;1475;51.454;7.150;2022-09-09T09:35:24;19.90;99.90
2931;DHT22;1475;51.454;7.150;2022-09-09T09:37:52;20.00;99.90
2931;DHT22;1475;51.454;7.150;2022-09-09T09:40:21;20.10;99.90
2931;DHT22;1475;51.454;7.150;2022-09-09T09:42:51;20.30;99.90
2931;DHT22;1475;51.454;7.150;2022-09-09T09:45:28;20.60;99.90
2931;DHT22;1475;51.454;7.150;2022-09-09T09:48:01;21.00;99.90
2931;DHT22;1475;51.454;7.150;2022-09-09T09:50:29;21.30;99.90
2931;DHT22;1475;51.454;7.150;2022-09-09T09:52:58;21.50;99.90
2931;DHT22;1475;51.454;7.150;2022-09-09T09:55:26;21.50;99.90
2931;DHT22;1475;51.454;7.150;2022-09-09T09:58:01;21.20;99.90
2931;DHT22;1475;51.454;7.150;2022-09-09T10:00:29;21.10;99.90
2931;DHT22;1475;51.454;7.150;2022-09-09T10:02:56;21.10;99.90
2931;DHT22;1475;51.454;7.150;2022-09-09T10:05:25;21.00;99.90
2931;DHT22;1475;51.454;7.150;2022-09-09T10:08:03;21.00;99.90
2931;DHT22;1475;51.454;7.150;2022-09-09T10:10:45;20.70;99.90
2931;DHT22;1475;51.454;7.150;2022-09-09T10:13:19;20.70;99.90
2931;DHT22;1475;51.454;7.150;2022-09-09T10:16:01;20.80;99.90
2931;DHT22;1475;51.454;7.150;2022-09-09T10:18:41;20.80;99.90
2931;DHT22;1475;51.454;7.150;2022-09-09T10:21:23;20.80;99.90
2931;DHT22;1475;51.454;7.150;2022-09-09T10:24:11;20.80;99.90
2931;DHT22;1475;51.454;7.150;2022-09-09T10:26:46;21.10;99.90
2931;DHT22;1475;51.454;7.150;2022-09-09T10:29:32;21.30;99.90
2931;DHT22;1475;51.454;7.150;2022-09-09T10:32:20;21.30;99.90
2931;DHT22;1475;51.454;7.150;2022-09-09T10:34:56;21.30;99.90
2931;DHT22;1475;51.454;7.150;2022-09-09T10:37:41;21.40;99.90
2931;DHT22;1475;51.454;7.150;2022-09-09T10:40:23;21.50;99.90
2931;DHT22;1475;51.454;7.150;2022-09-09T10:42:56;21.60;99.90
2931;DHT22;1475;51.454;7.150;2022-09-09T10:45:30;21.50;99.90
2931;DHT22;1475;51.454;7.150;2022-09-09T10:48:16;21.40;99.90
2931;DHT22;1475;51.454;7.150;2022-09-09T10:50:54;21.50;99.90
2931;DHT22;1475;51.454;7.150;2022-09-09T10:53:31;21.90;99.90
2931;DHT22;1475;51.454;7.150;2022-09-09T10:56:06;22.10;99.90
2931;DHT22;1475;51.454;7.150;2022-09-09T10:58:38;22.20;99.90
2931;DHT22;1475;51.454;7.150;2022-09-09T11:01:14;22.40;99.90
2931;DHT22;1475;51.454;7.150;2022-09-09T11:03:44;22.40;99.90
2931;DHT22;1475;51.454;7.150;2022-09-09T11:06:16;22.40;99.90
2931;DHT22;1475;51.454;7.150;2022-09-09T11:08:43;22.10;99.90
2931;DHT22;1475;51.454;7.150;2022-09-09T11:11:16;22.00;99.90
2931;DHT22;1475;51.454;7.150;2022-09-09T11:13:47;21.80;99.90
2931;DHT22;1475;51.454;7.150;2022-09-09T11:16:23;21.70;99.90
2931;DHT22;1475;51.454;7.150;2022-09-09T11:18:55;21.60;99.90
2931;DHT22;1475;51.454;7.150;2022-09-09T11:21:26;21.80;99.90
2931;DHT22;1475;51.454;7.150;2022-09-09T11:23:59;22.00;99.90
2931;DHT22;1475;51.454;7.150;2022-09-09T11:26:31;22.10;99.90
2931;DHT22;1475;51.454;7.150;2022-09-09T11:29:14;21.90;99.90
2931;DHT22;1475;51.454;7.150;2022-09-09T11:31:53;22.00;99.90
2931;DHT22;1475;51.454;7.150;2022-09-09T11:34:39;22.20;99.90
2931;DHT22;1475;51.454;7.150;2022-09-09T11:37:21;22.30;99.90
2931;DHT22;1475;51.454;7.150;2022-09-09T11:40:08;22.20;99.90
2931;DHT22;1475;51.454;7.150;2022-09-09T11:42:35;22.10;99.90
2931;DHT22;1475;51.454;7.150;2022-09-09T11:45:10;21.80;99.90
2931;DHT22;1475;51.454;7.150;2022-09-09T11:47:38;21.70;99.90
2931;DHT22;1475;51.454;7.150;2022-09-09T11:50:22;22.00;99.90
2931;DHT22;1475;51.454;7.150;2022-09-09T11:55:59;22.90;99.90
2931;DHT22;1475;51.454;7.150;2022-09-09T11:58:26;22.70;99.90
2931;DHT22;1475;51.454;7.150;2022-09-09T12:00:54;22.50;99.90
2931;DHT22;1475;51.454;7.150;2022-09-09T12:03:40;22.30;99.90
2931;DHT22;1475;51.454;7.150;2022-09-09T12:06:15;22.10;99.90
2931;DHT22;1475;51.454;7.150;2022-09-09T12:08:44;21.80;99.90
2931;DHT22;1475;51.454;7.150;2022-09-09T12:11:24;21.50;99.90
2931;DHT22;1475;51.454;7.150;2022-09-09T12:13:54;21.20;99.90
2931;DHT22;1475;51.454;7.150;2022-09-09T12:16:32;20.80;99.90
2931;DHT22;1475;51.454;7.150;2022-09-09T12:19:05;20.70;99.90
2931;DHT22;1475;51.454;7.150;2022-09-09T12:21:42;21.00;99.90
2931;DHT22;1475;51.454;7.150;2022-09-09T12:24:14;21.40;99.90
2931;DHT22;1475;51.454;7.150;2022-09-09T12:26:49;22.00;99.90
2931;DHT22;1475;51.454;7.150;2022-09-09T12:29:24;22.60;99.90
2931;DHT22;1475;51.454;7.150;2022-09-09T12:31:58;23.00;99.90
2931;DHT22;1475;51.454;7.150;2022-09-09T12:34:36;23.10;99.90
2931;DHT22;1475;51.454;7.150;2022-09-09T12:37:13;22.90;99.90
2931;DHT22;1475;51.454;7.150;2022-09-09T12:39:45;22.50;99.90
2931;DHT22;1475;51.454;7.150;2022-09-09T12:42:19;22.30;99.90
2931;DHT22;1475;51.454;7.150;2022-09-09T12:44:53;22.10;99.90
2931;DHT22;1475;51.454;7.150;2022-09-09T12:47:24;21.80;99.90
2931;DHT22;1475;51.454;7.150;2022-09-09T12:49:52;21.60;99.90
2931;DHT22;1475;51.454;7.150;2022-09-09T12:52:27;22.00;99.90
2931;DHT22;1475;51.454;7.150;2022-09-09T12:54:56;23.20;99.90
2931;DHT22;1475;51.454;7.150;2022-09-09T12:57:24;24.30;99.90
2931;DHT22;1475;51.454;7.150;2022-09-09T12:59:52;26.30;99.90
2931;DHT22;1475;51.454;7.150;2022-09-09T13:02:22;27.00;99.90
2931;DHT22;1475;51.454;7.150;2022-09-09T13:04:49;27.60;99.90
2931;DHT22;1475;51.454;7.150;2022-09-09T13:07:17;27.70;99.90
2931;DHT22;1475;51.454;7.150;2022-09-09T13:09:47;28.60;99.90
2931;DHT22;1475;51.454;7.150;2022-09-09T13:12:17;28.80;99.90
2931;DHT22;1475;51.454;7.150;2022-09-09T13:14:47;28.60;99.90
2931;DHT22;1475;51.454;7.150;2022-09-09T13:17:20;28.30;99.90
2931;DHT22;1475;51.454;7.150;2022-09-09T13:19:48;27.10;99.90
2931;DHT22;1475;51.454;7.150;2022-09-09T13:22:21;26.40;99.90
2931;DHT22;1475;51.454;7.150;2022-09-09T13:25:00;25.30;99.90
2931;DHT22;1475;51.454;7.150;2022-09-09T13:27:31;24.80;99.90
2931;DHT22;1475;51.454;7.150;2022-09-09T13:29:59;24.30;99.90
2931;DHT22;1475;51.454;7.150;2022-09-09T13:32:27;23.80;99.90
2931;DHT22;1475;51.454;7.150;2022-09-09T13:34:55;23.30;99.90
2931;DHT22;1475;51.454;7.150;2022-09-09T13:37:26;22.70;99.90
2931;DHT22;1475;51.454;7.150;2022-09-09T13:39:54;22.10;99.90
2931;DHT22;1475;51.454;7.150;2022-09-09T13:42:26;21.60;99.90
2931;DHT22;1475;51.454;7.150;2022-09-09T13:44:54;21.10;99.90
2931;DHT22;1475;51.454;7.150;2022-09-09T13:47:28;20.70;99.90
2931;DHT22;1475;51.454;7.150;2022-09-09T13:49:56;19.90;99.90
2931;DHT22;1475;51.454;7.150;2022-09-09T13:52:24;19.00;99.90
2931;DHT22;1475;51.454;7.150;2022-09-09T13:57:20;18.40;99.90
2931;DHT22;1475;51.454;7.150;2022-09-09T14:12:09;18.10;99.90
2931;DHT22;1475;51.454;7.150;2022-09-09T14:14:36;17.90;99.90
2931;DHT22;1475;51.454;7.150;2022-09-09T14:17:04;18.50;99.90
2931;DHT22;1475;51.454;7.150;2022-09-09T14:19:31;19.10;99.90
2931;DHT22;1475;51.454;7.150;2022-09-09T14:21:58;19.90;99.90
2931;DHT22;1475;51.454;7.150;2022-09-09T14:24:25;20.40;99.90
2931;DHT22;1475;51.454;7.150;2022-09-09T14:26:51;21.00;99.90
2931;DHT22;1475;51.454;7.150;2022-09-09T14:29:18;22.00;99.90
2931;DHT22;1475;51.454;7.150;2022-09-09T14:31:47;22.80;99.90
2931;DHT22;1475;51.454;7.150;2022-09-09T14:34:15;23.10;99.90
2931;DHT22;1475;51.454;7.150;2022-09-09T14:36:42;22.70;99.90
2931;DHT22;1475;51.454;7.150;2022-09-09T14:39:10;22.20;99.90
2931;DHT22;1475;51.454;7.150;2022-09-09T14:41:37;21.90;99.90
2931;DHT22;1475;51.454;7.150;2022-09-09T14:44:04;21.80;99.90
2931;DHT22;1475;51.454;7.150;2022-09-09T14:46:30;21.70;99.90
2931;DHT22;1475;51.454;7.150;2022-09-09T14:48:58;21.60;99.90
2931;DHT22;1475;51.454;7.150;2022-09-09T14:51:27;21.70;99.90
2931;DHT22;1475;51.454;7.150;2022-09-09T14:53:55;22.70;99.90
2931;DHT22;1475;51.454;7.150;2022-09-09T14:56:24;24.20;99.90
2931;DHT22;1475;51.454;7.150;2022-09-09T14:58:53;26.00;99.90
2931;DHT22;1475;51.454;7.150;2022-09-09T15:01:20;27.00;99.90
2931;DHT22;1475;51.454;7.150;2022-09-09T15:03:50;26.30;99.90
2931;DHT22;1475;51.454;7.150;2022-09-09T15:06:17;25.20;99.90
2931;DHT22;1475;51.454;7.150;2022-09-09T15:08:46;23.90;99.90
2931;DHT22;1475;51.454;7.150;2022-09-09T15:11:14;22.90;99.90
2931;DHT22;1475;51.454;7.150;2022-09-09T15:18:37;22.10;99.90
2931;DHT22;1475;51.454;7.150;2022-09-09T15:21:05;18.40;99.90
2931;DHT22;1475;51.454;7.150;2022-09-09T15:23:34;17.50;99.90
2931;DHT22;1475;51.454;7.150;2022-09-09T15:26:02;16.90;99.90
2931;DHT22;1475;51.454;7.150;2022-09-09T15:28:31;16.50;99.90
2931;DHT22;1475;51.454;7.150;2022-09-09T15:31:06;16.20;99.90
2931;DHT22;1475;51.454;7.150;2022-09-09T15:33:33;15.90;99.90
2931;DHT22;1475;51.454;7.150;2022-09-09T15:36:12;15.80;99.90
2931;DHT22;1475;51.454;7.150;2022-09-09T15:38:39;15.70;99.90
2931;DHT22;1475;51.454;7.150;2022-09-09T15:41:07;15.50;99.90
2931;DHT22;1475;51.454;7.150;2022-09-09T15:43:34;15.50;99.90
2931;DHT22;1475;51.454;7.150;2022-09-09T15:46:18;15.40;99.90
2931;DHT22;1475;51.454;7.150;2022-09-09T15:48:50;15.50;99.90
2931;DHT22;1475;51.454;7.150;2022-09-09T15:51:17;15.60;99.90
2931;DHT22;1475;51.454;7.150;2022-09-09T15:53:44;15.50;99.90
2931;DHT22;1475;51.454;7.150;2022-09-09T15:56:12;15.60;99.90
2931;DHT22;1475;51.454;7.150;2022-09-09T15:58:39;15.60;99.90
2931;DHT22;1475;51.454;7.150;2022-09-09T16:01:06;15.70;99.90
2931;DHT22;1475;51.454;7.150;2022-09-09T16:03:34;15.70;99.90
2931;DHT22;1475;51.454;7.150;2022-09-09T16:06:01;15.80;99.90
2931;DHT22;1475;51.454;7.150;2022-09-09T16:08:31;15.80;99.90
2931;DHT22;1475;51.454;7.150;2022-09-09T16:11:04;16.00;99.90
2931;DHT22;1475;51.454;7.150;2022-09-09T16:13:34;16.10;99.90
2931;DHT22;1475;51.454;7.150;2022-09-09T16:16:02;16.20;99.90
2931;DHT22;1475;51.454;7.150;2022-09-09T16:18:34;16.30;99.90
2931;DHT22;1475;51.454;7.150;2022-09-09T16:21:01;16.30;99.90
2931;DHT22;1475;51.454;7.150;2022-09-09T16:23:31;16.40;99.90
2931;DHT22;1475;51.454;7.150;2022-09-09T16:25:58;16.40;99.90
2931;DHT22;1475;51.454;7.150;2022-09-09T16:28:25;16.50;99.90
2931;DHT22;1475;51.454;7.150;2022-09-09T16:30:54;16.60;99.90
2931;DHT22;1475;51.454;7.150;2022-09-09T16:33:21;16.60;99.90
2931;DHT22;1475;51.454;7.150;2022-09-09T16:35:48;16.50;99.90
2931;DHT22;1475;51.454;7.150;2022-09-09T16:38:15;16.60;99.90
2931;DHT22;1475;51.454;7.150;2022-09-09T16:40:43;16.60;99.90
2931;DHT22;1475;51.454;7.150;2022-09-09T16:43:10;16.60;99.90
2931;DHT22;1475;51.454;7.150;2022-09-09T16:45:41;16.70;99.90
2931;DHT22;1475;51.454;7.150;2022-09-09T16:48:11;16.80;99.90